Main page
METAR-TAF:

METAR-TAF

Airports :

Ancona, Italy

Falconara Airport

latitude: 43-37N, longitude: 013-22E, elevation: 12 m

Current weather observation

The report was made 59 minutes ago, at 07:50 UTC
Wind 15 kt from the North/Northwest
Temperature 8°C
Humidity 87%
Pressure 1004 hPa
Visibility 10 km or more
Broken clouds at a height of 4000 ft

METAR: LIPY 210750Z 33015KT 9999 BKN040 08/06 Q1004

Time: 09:49 (08:49 UTC)

Forecast

The report was made 3 hours and 49 minutes ago, at 05:00 UTC
Forecast valid from 21 at 06 UTC to 22 at 06 UTC
Wind 10 kt from the North/Northwest
Visibility 10 km or more
Scattered clouds at a height of 3000 ft
Becoming
from 21 at 22 UTC to 22 at 01 UTC
Wind 10 kt from the Northeast

TAF: LIPY 210500Z 2106/2206 34010KT 9999 SCT030 BECMG 2122/2201 04010KT

Weather observations and forecasts of more than 4000 airports (METAR and TAF reports).

The available stations are represented by yellow and red dots on the map.

Hover mouse over dot to see the name of the station.

Then click to see weather observations and forecasts.

To change the map : click on the green buttons with a black cross to zoom in, on the green button with a dash to zoom out, or on the green arrows for adjacent maps.


METAR-TAF: